Terminal Aerodrome Forecast
Issued by NWS Twin Cities, MN

Home | Current Version | Previous Version | Graphics & Text | Print | Product List | Glossary On
Versions: 1 2 3 4 5 6 7 8 9 10 11 12 13 14 15 16 17 18
000
FTUS43 KMPX 221120
TAFSTC
TAF
KSTC 221120Z 2212/2312 04009KT 6SM BR BKN007 OVC012
     FM221800 03012KT P6SM OVC015
     FM230000 05006KT P6SM VCSH OVC025
     FM230600 04006KT P6SM OVC015=

USA.gov is the U.S. government's official web portal to all federal, state and local government web resources and services.